Time;durP1;ratioP1;P1;durP2;ratioP2;P2;SDS_P1;SDS_P2;PMS_P1;PMS_P2;Temp;Humidity;BMP_temperature;BMP_pressure;BME280_temperature;BME280_humidity;BME280_pressure;Samples;Min_cycle;Max_cycle;Signal;HPM_P1;HPM_P2
2022/03/02 00:00:30;;;;;;;14.23;9.63;;;;;;;3.65;45.87;99662.56;6991646;28;20212;-87
2022/03/02 00:07:55;;;;;;;12.17;8.93;;;;;;;3.60;46.21;99653.31;6976787;28;20215;-88
2022/03/02 00:11:17;;;;;;;11.57;8.73;;;;;;;3.74;46.02;99669.72;6993890;28;20234;-87
2022/03/02 00:14:39;;;;;;;17.17;8.93;;;;;;;3.43;46.96;99665.50;6995179;28;20240;-88
2022/03/02 00:18:02;;;;;;;11.87;8.67;;;;;;;3.40;47.42;99688.91;6993192;28;20237;-88
2022/03/02 00:21:32;;;;;;;12.90;8.87;;;;;;;3.53;46.30;99666.34;6991454;28;20220;-89
2022/03/02 00:28:52;;;;;;;11.43;8.23;;;;;;;4.12;44.43;99634.97;6963103;28;20211;-86
2022/03/02 00:32:35;;;;;;;14.30;9.23;;;;;;;3.63;45.87;99661.00;6990633;28;20235;-88
2022/03/02 00:48:45;;;;;;;12.40;8.83;;;;;;;3.13;47.23;99607.00;6819933;28;20220;-88
2022/03/02 00:52:10;;;;;;;10.47;8.20;;;;;;;3.45;47.35;99631.56;6992172;28;20232;-88
2022/03/02 00:55:32;;;;;;;12.47;9.30;;;;;;;3.42;47.44;99647.00;6993012;28;20208;-87
2022/03/02 00:58:54;;;;;;;13.57;9.67;;;;;;;3.61;47.18;99617.66;6995894;28;20235;-89
2022/03/02 01:07:20;;;;;;;;;;;;;;;;;;;;;
2022/03/02 01:35:54;;;;;;;10.33;8.23;;;;;;;4.16;45.23;99591.00;6606295;29;20437;-88
2022/03/02 01:39:34;;;;;;;11.80;7.87;;;;;;;4.25;44.72;99624.00;6769317;29;20210;-87
2022/03/02 01:42:56;;;;;;;9.60;7.63;;;;;;;4.41;45.07;99613.50;6746671;29;20251;-88
2022/03/02 01:46:19;;;;;;;10.67;8.43;;;;;;;4.45;44.67;99613.09;6749179;29;20221;-89
2022/03/02 01:49:41;;;;;;;8.33;6.87;;;;;;;4.27;45.39;99606.00;6753391;29;20209;-89
2022/03/02 01:53:05;;;;;;;11.73;8.37;;;;;;;4.28;44.90;99597.00;6800888;29;20709;-87
2022/03/02 01:56:27;;;;;;;11.33;7.47;;;;;;;4.40;45.33;99602.00;6797484;29;20275;-88
2022/03/02 01:59:49;;;;;;;10.57;8.17;;;;;;;4.30;45.51;99579.03;6847189;28;20229;-87
2022/03/02 02:07:03;;;;;;;10.00;7.60;;;;;;;4.43;45.23;99599.03;6925804;28;20213;-87
2022/03/02 02:10:28;;;;;;;10.07;7.87;;;;;;;4.39;45.46;99584.31;6966531;28;20216;-88
2022/03/02 02:13:52;;;;;;;10.00;8.17;;;;;;;4.10;46.00;99545.38;6964335;28;20275;-88
2022/03/02 02:17:14;;;;;;;8.10;7.30;;;;;;;4.10;46.47;99574.72;6963517;28;20226;-87
2022/03/02 02:20:38;;;;;;;10.77;7.80;;;;;;;3.85;47.08;99570.03;6987707;28;20631;-87
2022/03/02 02:24:05;;;;;;;9.40;7.60;;;;;;;3.87;46.47;99512.91;6981345;28;20229;-87
2022/03/02 02:27:52;;;;;;;9.43;7.70;;;;;;;4.00;46.87;99552.56;6985395;28;20234;-88
2022/03/02 02:31:46;;;;;;;10.27;7.87;;;;;;;3.52;47.77;99542.03;6849361;29;20247;-89
2022/03/02 02:35:10;;;;;;;9.00;8.10;;;;;;;3.88;46.99;99522.56;6850090;29;20236;-88
2022/03/02 02:38:33;;;;;;;8.70;7.10;;;;;;;4.04;46.39;99522.81;6851987;29;20217;-89
2022/03/02 02:41:58;;;;;;;9.27;7.13;;;;;;;3.31;48.24;99525.38;6854049;28;20232;-88
2022/03/02 02:45:21;;;;;;;9.67;7.10;;;;;;;3.57;47.81;99534.47;6857973;28;20245;-88
2022/03/02 02:53:14;;;;;;;10.23;7.87;;;;;;;3.87;47.35;99517.38;6845935;29;20261;-87
2022/03/02 02:56:40;;;;;;;12.50;7.83;;;;;;;3.44;47.54;99511.75;6860267;29;20630;-86
2022/03/02 03:04:51;;;;;;;9.53;7.50;;;;;;;3.38;48.45;99522.97;6850166;29;20234;-88
2022/03/02 03:39:54;;;;;;;12.67;8.07;;;;;;;3.21;48.20;99537.03;6672339;29;20211;-87
2022/03/02 03:43:40;;;;;;;11.53;8.10;;;;;;;2.82;47.53;99504.22;6567780;30;20712;-88
2022/03/02 03:47:03;;;;;;;8.23;7.17;;;;;;;3.28;47.56;99543.47;6576585;30;20685;-88
2022/03/02 05:02:20;;;;;;;9.33;7.67;;;;;;;2.56;48.97;99494.25;6584592;29;20227;-86
2022/03/02 05:32:02;;;;;;;9.63;7.70;;;;;;;2.52;48.52;99411.19;6677100;29;20255;-88
2022/03/02 05:35:24;;;;;;;10.53;8.53;;;;;;;2.85;47.67;99489.78;6812013;29;20210;-88
2022/03/02 05:38:49;;;;;;;11.50;8.40;;;;;;;2.59;48.63;99470.03;6886042;28;20216;-88
2022/03/02 05:42:11;;;;;;;10.70;8.17;;;;;;;2.63;48.72;99464.28;6990767;28;20223;-89
2022/03/02 05:45:39;;;;;;;10.60;8.03;;;;;;;2.26;48.33;99385.28;6994179;28;20206;-88
2022/03/02 05:49:50;;;;;;;11.30;8.30;;;;;;;2.35;49.53;99466.91;6990619;28;20261;-87
2022/03/02 06:01:56;;;;;;;11.80;7.80;;;;;;;2.00;48.64;99390.28;6888502;28;20264;-89
2022/03/02 06:09:37;;;;;;;9.10;8.03;;;;;;;2.85;47.95;99469.34;6867486;28;20671;-88
2022/03/02 06:13:11;;;;;;;10.40;6.90;;;;;;;2.62;47.73;99451.97;6870745;28;20236;-89
2022/03/02 06:29:06;;;;;;;10.70;8.03;;;;;;;3.01;47.73;99456.28;6776379;29;20245;-89
2022/03/02 06:32:41;;;;;;;12.47;7.80;;;;;;;3.15;47.46;99433.69;6778285;28;20236;-88
2022/03/02 06:36:04;;;;;;;11.53;9.17;;;;;;;3.25;46.62;99406.03;6879519;28;20229;-88
2022/03/02 06:39:38;;;;;;;11.17;8.27;;;;;;;3.63;46.11;99450.38;6878288;28;20210;-88
2022/03/02 06:43:03;;;;;;;14.77;9.83;;;;;;;2.87;46.40;99328.91;6853048;28;20232;-88
2022/03/02 06:47:11;;;;;;;10.80;8.43;;;;;;;3.47;46.75;99443.00;6881126;28;20213;-89
2022/03/02 06:51:08;;;;;;;12.03;8.63;;;;;;;3.62;46.33;99452.22;6827042;29;20213;-89
2022/03/02 06:54:34;;;;;;;11.97;9.93;;;;;;;3.61;46.23;99375.88;6847666;29;20240;-89
2022/03/02 06:58:23;;;;;;;15.07;11.73;;;;;;;4.44;46.06;99447.72;6850348;28;20206;-89
2022/03/02 07:01:55;;;;;;;13.33;10.43;;;;;;;4.49;45.65;99410.72;6854210;28;20226;-89
2022/03/02 07:05:26;;;;;;;9.77;8.73;;;;;;;4.84;45.09;99448.94;6920956;28;20212;-88
2022/03/02 07:08:52;;;;;;;11.23;9.03;;;;;;;4.68;45.33;99459.47;6984722;28;20212;-88
2022/03/02 07:12:17;;;;;;;11.97;8.87;;;;;;;4.88;45.06;99460.16;6992446;28;20258;-89
2022/03/02 07:32:37;;;;;;;10.97;8.70;;;;;;;4.96;45.77;99439.69;6962149;28;20232;-89
2022/03/02 07:36:02;;;;;;;11.50;9.10;;;;;;;4.74;46.09;99410.81;6962245;28;20277;-89
2022/03/02 07:47:22;;;;;;;14.70;9.83;;;;;;;5.05;45.10;99454.81;6964180;28;20221;-87
2022/03/02 07:50:59;;;;;;;12.53;10.03;;;;;;;5.03;45.38;99426.56;6964949;28;20222;-88
2022/03/02 07:54:21;;;;;;;16.57;10.80;;;;;;;4.85;46.25;99415.06;6964148;28;20297;-88
2022/03/02 08:01:28;;;;;;;20.07;12.80;;;;;;;5.39;45.66;99455.75;6956601;28;20242;-88
2022/03/02 08:04:55;;;;;;;23.93;13.97;;;;;;;5.71;45.47;99469.31;6990547;28;20270;-86
2022/03/02 08:08:23;;;;;;;30.23;14.07;;;;;;;6.00;44.02;99443.06;7016990;28;20572;-87
2022/03/02 08:11:45;;;;;;;20.93;11.57;;;;;;;6.17;44.48;99463.53;7007496;28;20226;-88
2022/03/02 08:15:10;;;;;;;17.57;11.97;;;;;;;6.41;44.97;99454.75;6986169;28;20224;-89
2022/03/02 08:18:32;;;;;;;16.07;11.27;;;;;;;6.26;43.46;99378.75;6994797;28;20208;-87
2022/03/02 08:21:58;;;;;;;17.07;11.70;;;;;;;6.92;42.61;99447.31;6996387;28;20216;-86
2022/03/02 08:25:23;;;;;;;18.23;11.80;;;;;;;6.68;43.23;99441.09;6992792;28;20197;-85
2022/03/02 08:28:45;;;;;;;20.87;11.97;;;;;;;6.42;42.91;99370.75;6995991;28;20210;-87
2022/03/02 08:32:12;;;;;;;17.50;12.17;;;;;;;6.83;42.61;99381.31;6986077;28;20231;-87
2022/03/02 08:43:51;;;;;;;18.73;12.50;;;;;;;7.23;43.00;99442.13;6901010;28;20299;-86
2022/03/02 08:47:14;;;;;;;27.23;12.47;;;;;;;7.40;41.56;99356.09;6913182;28;20232;-87
2022/03/02 08:50:36;;;;;;;27.03;13.00;;;;;;;8.47;40.92;99418.94;6891440;28;20205;-85
2022/03/02 08:54:13;;;;;;;22.80;13.37;;;;;;;8.49;39.94;99406.16;6884922;28;20229;-87
2022/03/02 08:57:35;;;;;;;27.30;14.07;;;;;;;8.79;40.25;99411.50;6826543;28;20217;-89
2022/03/02 09:00:59;;;;;;;28.50;15.37;;;;;;;8.92;39.10;99427.88;6894668;28;20201;-87
2022/03/02 09:04:23;;;;;;;17.10;12.47;;;;;;;8.99;38.81;99408.13;6862064;28;20220;-87
2022/03/02 09:07:46;;;;;;;17.73;10.73;;;;;;;8.99;37.12;99353.53;6885869;28;20214;-87
2022/03/02 09:11:08;;;;;;;11.90;9.40;;;;;;;9.94;34.53;99378.59;6886271;28;21715;-87
2022/03/02 09:14:30;;;;;;;15.30;8.80;;;;;;;10.04;33.14;99418.72;6939324;28;20274;-87
2022/03/02 09:17:52;;;;;;;14.63;8.00;;;;;;;9.82;32.83;99363.91;6990882;28;20198;-86
2022/03/02 09:21:15;;;;;;;9.17;7.80;;;;;;;11.41;30.86;99404.84;6972064;28;20229;-84
2022/03/02 09:24:37;;;;;;;11.03;7.57;;;;;;;10.96;30.90;99354.00;6972872;28;20198;-84
2022/03/02 09:27:59;;;;;;;9.83;7.93;;;;;;;11.81;30.69;99394.16;6981980;28;20201;-83
2022/03/02 09:31:22;;;;;;;8.97;7.47;;;;;;;12.64;29.37;99366.88;6987452;28;20257;-84
2022/03/02 09:34:48;;;;;;;10.30;8.00;;;;;;;12.30;28.04;99375.91;6991080;28;20221;-82
2022/03/02 09:38:12;;;;;;;8.67;7.77;;;;;;;11.59;30.44;99370.13;6976733;28;20218;-81
2022/03/02 09:41:42;;;;;;;9.83;8.10;;;;;;;12.17;29.61;99386.66;6975525;28;20229;-84
2022/03/02 09:45:06;;;;;;;10.40;8.07;;;;;;;12.19;28.94;99337.81;6976288;28;20708;-84
2022/03/02 09:48:30;;;;;;;10.00;7.70;;;;;;;12.56;28.82;99364.34;6974269;28;20244;-83
2022/03/02 09:51:55;;;;;;;9.70;7.60;;;;;;;12.12;29.07;99358.56;6977202;28;20238;-87
2022/03/02 09:55:22;;;;;;;12.23;8.20;;;;;;;12.53;29.13;99365.59;6981503;28;20225;-86
2022/03/02 09:58:45;;;;;;;7.93;7.13;;;;;;;11.50;29.89;99368.56;6983755;28;20270;-86
2022/03/02 10:02:10;;;;;;;9.33;7.87;;;;;;;11.94;29.45;99371.78;6980584;28;20229;-86
2022/03/02 10:05:33;;;;;;;12.90;8.80;;;;;;;11.49;30.47;99389.34;6983443;28;20600;-86
2022/03/02 10:08:55;;;;;;;8.13;7.13;;;;;;;11.12;30.60;99386.13;6982306;28;20587;-86
2022/03/02 10:12:20;;;;;;;9.17;7.87;;;;;;;11.19;30.69;99378.91;6986152;28;20228;-86
2022/03/02 10:15:58;;;;;;;;;;;;;;;;;;;;;
2022/03/02 10:19:50;;;;;;;8.83;7.97;;;;;;;11.43;30.63;99365.84;6990326;28;20198;-85
2022/03/02 10:24:13;;;;;;;9.67;8.67;;;;;;;11.59;30.00;99360.16;6981590;28;20234;-86
2022/03/02 10:27:53;;;;;;;12.10;8.53;;;;;;;12.26;29.37;99330.53;6990063;28;20211;-86
2022/03/02 10:31:44;;;;;;;8.87;7.63;;;;;;;11.56;29.69;99354.28;6988335;28;20221;-86
2022/03/02 10:35:08;;;;;;;11.67;7.80;;;;;;;11.57;29.97;99345.97;6986169;28;20403;-85
2022/03/02 10:38:40;;;;;;;10.90;8.50;;;;;;;12.41;29.53;99325.81;6984119;28;20206;-85
2022/03/02 10:42:05;;;;;;;10.53;8.67;;;;;;;12.38;28.79;99337.88;6981229;28;20255;-86
2022/03/02 10:45:29;;;;;;;11.50;8.33;;;;;;;12.92;28.58;99340.50;6980520;28;20204;-85
2022/03/02 10:49:03;;;;;;;10.33;8.33;;;;;;;13.31;27.49;99335.94;6976977;28;20573;-87
2022/03/02 10:52:26;;;;;;;12.40;8.63;;;;;;;13.60;27.57;99334.63;6976347;28;20375;-87
2022/03/02 10:55:49;;;;;;;12.53;9.37;;;;;;;13.50;27.65;99302.56;6976883;28;20213;-85
2022/03/02 10:59:16;;;;;;;11.63;8.30;;;;;;;13.59;26.99;99309.44;6976231;28;20199;-86
2022/03/02 11:02:42;;;;;;;8.87;7.93;;;;;;;12.81;28.91;99316.75;6975957;28;20231;-86
2022/03/02 11:06:07;;;;;;;12.00;8.70;;;;;;;13.46;27.80;99314.03;6948545;28;20220;-86
2022/03/02 11:09:34;;;;;;;10.67;9.20;;;;;;;13.56;27.70;99314.41;6952599;28;20210;-84
2022/03/02 11:12:57;;;;;;;17.00;10.70;;;;;;;13.64;28.67;99309.59;6961365;28;20686;-86
2022/03/02 11:16:19;;;;;;;11.83;9.47;;;;;;;13.65;28.60;99291.47;6978989;28;20206;-88
2022/03/02 11:19:45;;;;;;;14.83;9.80;;;;;;;13.48;28.04;99291.13;6979607;28;20567;-86
2022/03/02 11:23:07;;;;;;;15.00;9.97;;;;;;;13.08;28.24;99202.88;6989576;28;20265;-86
2022/03/02 11:26:30;;;;;;;11.70;10.10;;;;;;;13.49;27.57;99276.53;6977136;28;20564;-87
2022/03/02 11:30:10;;;;;;;13.73;10.03;;;;;;;13.78;27.25;99286.00;6996257;28;20226;-87
2022/03/02 11:33:32;;;;;;;11.47;9.40;;;;;;;14.08;27.27;99284.44;7009949;28;20255;-83
2022/03/02 11:37:00;;;;;;;13.80;10.37;;;;;;;14.02;27.23;99263.59;7005562;28;20234;-84
2022/03/02 11:40:39;;;;;;;16.03;9.80;;;;;;;13.57;28.03;99241.06;7005991;28;20212;-84
2022/03/02 11:44:00;;;;;;;10.30;8.90;;;;;;;14.33;26.94;99271.84;6977079;28;20233;-83
2022/03/02 11:47:23;;;;;;;13.00;9.90;;;;;;;13.88;27.44;99270.13;6978209;28;20197;-84
2022/03/02 11:51:00;;;;;;;11.67;9.60;;;;;;;13.78;27.73;99275.16;6976956;28;20252;-84
2022/03/02 11:54:23;;;;;;;12.90;10.53;;;;;;;13.73;27.51;99262.28;6977632;28;20217;-85
2022/03/02 11:57:48;;;;;;;13.83;9.83;;;;;;;14.14;26.89;99256.44;6978019;28;20208;-84
2022/03/02 12:01:24;;;;;;;13.23;9.40;;;;;;;13.91;27.55;99262.41;6976844;28;20223;-84
2022/03/02 12:04:59;;;;;;;11.40;9.67;;;;;;;13.59;27.01;99263.38;6976967;28;20217;-84
2022/03/02 12:08:23;;;;;;;14.73;9.70;;;;;;;13.92;26.76;99200.91;6977395;28;20206;-84
2022/03/02 12:11:46;;;;;;;12.43;9.97;;;;;;;14.12;26.77;99250.41;6976165;28;20729;-84
2022/03/02 12:15:08;;;;;;;12.07;9.47;;;;;;;14.25;26.93;99248.50;6976622;28;20240;-84
2022/03/02 12:18:30;;;;;;;14.80;9.37;;;;;;;14.35;25.84;99250.75;6977182;28;20377;-88
2022/03/02 12:21:54;;;;;;;13.53;9.77;;;;;;;14.91;25.12;99238.81;6974866;28;20231;-85
2022/03/02 12:25:18;;;;;;;11.73;9.60;;;;;;;14.48;25.50;99229.78;6973881;28;20268;-85
2022/03/02 12:28:57;;;;;;;13.93;9.50;;;;;;;14.37;25.96;99233.19;6976407;28;20570;-85
2022/03/02 12:32:19;;;;;;;12.53;8.93;;;;;;;14.68;25.54;99233.16;6976139;28;20218;-86
2022/03/02 12:35:40;;;;;;;11.97;8.40;;;;;;;14.88;26.34;99228.44;6976649;28;20230;-85
2022/03/02 12:39:02;;;;;;;12.07;9.40;;;;;;;14.91;26.09;99219.81;6976500;28;20204;-85
2022/03/02 12:42:24;;;;;;;11.73;8.90;;;;;;;14.87;26.15;99228.63;6976347;28;20243;-85
2022/03/02 12:45:49;;;;;;;10.63;8.90;;;;;;;14.71;26.15;99218.31;6978092;28;20570;-85
2022/03/02 12:49:11;;;;;;;13.67;9.10;;;;;;;14.11;27.37;99221.66;6977331;28;20200;-86
2022/03/02 12:52:33;;;;;;;12.40;9.23;;;;;;;13.85;28.07;99210.91;6986054;28;20228;-85
2022/03/02 12:55:55;;;;;;;13.57;8.83;;;;;;;13.59;28.31;99216.47;6981929;28;20228;-85
2022/03/02 12:59:17;;;;;;;12.10;9.43;;;;;;;13.86;28.00;99207.19;6977161;28;20203;-85
2022/03/02 13:02:40;;;;;;;11.17;9.60;;;;;;;13.73;28.42;99213.50;6976270;28;20637;-86
2022/03/02 13:06:05;;;;;;;25.77;20.30;;;;;;;14.01;28.59;99214.00;6976711;28;20218;-85
2022/03/02 13:09:30;;;;;;;15.40;12.17;;;;;;;13.51;28.77;99171.47;6976576;28;20607;-85
2022/03/02 13:12:56;;;;;;;15.60;12.53;;;;;;;14.06;28.76;99206.03;6976169;28;20246;-85
2022/03/02 13:16:20;;;;;;;15.33;11.57;;;;;;;13.96;28.80;99202.97;6976437;28;20300;-85
2022/03/02 13:19:46;;;;;;;12.67;10.27;;;;;;;14.06;28.94;99203.31;6975074;28;20199;-85
2022/03/02 13:23:13;;;;;;;11.30;8.50;;;;;;;13.75;28.91;99200.56;6959755;28;20724;-84
2022/03/02 13:26:36;;;;;;;18.53;12.93;;;;;;;13.76;28.96;99134.44;6967328;28;20199;-86
2022/03/02 13:30:00;;;;;;;17.23;12.43;;;;;;;14.02;29.05;99220.22;6973726;28;20211;-85
2022/03/02 13:33:21;;;;;;;14.57;10.20;;;;;;;13.95;29.31;99212.16;6975547;28;20236;-85
2022/03/02 13:36:46;;;;;;;14.37;10.33;;;;;;;14.40;28.79;99210.22;6975565;28;20681;-86
2022/03/02 13:40:09;;;;;;;12.93;10.37;;;;;;;13.68;29.74;99190.81;6970295;28;20349;-86
2022/03/02 13:43:37;;;;;;;16.20;10.97;;;;;;;14.29;29.02;99197.38;6973924;28;20235;-86
2022/03/02 13:47:23;;;;;;;11.00;9.10;;;;;;;14.03;29.13;99203.75;6974935;28;20204;-87
2022/03/02 13:50:57;;;;;;;16.73;9.83;;;;;;;14.42;28.35;99199.97;6974048;28;20212;-85
2022/03/02 13:54:27;;;;;;;12.97;10.47;;;;;;;14.23;28.90;99179.25;6975341;28;20704;-86
2022/03/02 13:57:49;;;;;;;14.90;9.00;;;;;;;13.84;28.89;99177.59;6974366;28;20334;-81
2022/03/02 14:01:13;;;;;;;14.90;8.97;;;;;;;13.68;29.55;99198.94;6974720;28;20206;-84
2022/03/02 14:04:34;;;;;;;11.97;9.73;;;;;;;13.64;29.06;99182.25;6978228;28;20695;-84
2022/03/02 14:08:05;;;;;;;14.67;9.47;;;;;;;13.06;29.92;99187.88;6986925;28;20205;-85
2022/03/02 14:11:44;;;;;;;13.73;9.77;;;;;;;13.43;29.89;99197.97;7001474;28;20222;-89
2022/03/02 14:15:10;;;;;;;18.07;9.43;;;;;;;13.58;29.02;99164.16;6985607;28;20302;-86
2022/03/02 14:18:31;;;;;;;11.73;9.03;;;;;;;13.32;29.22;99103.84;6989922;28;20195;-86
2022/03/02 14:21:56;;;;;;;12.47;9.77;;;;;;;13.62;29.09;99178.13;6979662;28;20590;-86
2022/03/02 14:25:21;;;;;;;16.27;9.30;;;;;;;13.17;29.39;99192.66;6981312;28;20587;-84
2022/03/02 14:28:44;;;;;;;20.30;11.87;;;;;;;13.65;29.30;99185.81;6980120;28;20582;-84
2022/03/02 14:32:08;;;;;;;12.77;10.37;;;;;;;13.73;28.74;99177.41;6976333;28;20234;-84
2022/03/02 14:35:30;;;;;;;13.37;11.20;;;;;;;14.05;28.68;99181.84;6973316;28;20235;-84
2022/03/02 14:39:00;;;;;;;16.67;11.87;;;;;;;13.73;29.18;99166.59;6981338;28;20704;-84
2022/03/02 14:42:22;;;;;;;13.93;10.33;;;;;;;13.70;29.49;99175.16;6986232;28;20232;-83
2022/03/02 14:45:45;;;;;;;12.90;9.73;;;;;;;13.62;29.11;99170.81;6987205;28;20209;-83
2022/03/02 14:49:07;;;;;;;13.07;9.10;;;;;;;13.17;29.08;99169.09;6986814;28;20217;-83
2022/03/02 14:52:33;;;;;;;13.03;9.13;;;;;;;13.15;29.08;99163.06;6985661;28;20231;-83
2022/03/02 14:55:56;;;;;;;12.93;9.57;;;;;;;13.49;29.31;99164.59;6985946;28;20230;-83
2022/03/02 14:59:18;;;;;;;16.57;10.87;;;;;;;13.61;29.13;99143.91;6984317;28;20212;-83
2022/03/02 15:02:41;;;;;;;10.77;8.97;;;;;;;13.43;29.15;99151.94;6984189;28;20317;-83
2022/03/02 15:06:05;;;;;;;10.97;9.30;;;;;;;13.17;29.33;99133.91;6985532;28;20219;-83
2022/03/02 15:09:27;;;;;;;14.10;10.63;;;;;;;13.67;29.73;99148.47;6985773;28;20200;-84
2022/03/02 15:16:39;;;;;;;10.83;8.97;;;;;;;13.38;29.63;99160.69;6985607;28;20211;-84
2022/03/02 15:20:04;;;;;;;20.07;11.43;;;;;;;13.53;29.93;99149.59;6984001;28;20196;-83
2022/03/02 15:23:27;;;;;;;22.63;15.20;;;;;;;13.26;30.83;99140.75;6985147;28;20256;-83
2022/03/02 15:26:50;;;;;;;27.63;19.23;;;;;;;13.57;30.22;99169.81;6984826;28;20208;-84
2022/03/02 15:30:15;;;;;;;12.03;10.73;;;;;;;13.22;31.13;99150.34;6984863;28;20214;-84
2022/03/02 15:33:37;;;;;;;12.17;10.03;;;;;;;13.38;31.14;99154.44;6986137;28;20237;-83
2022/03/02 15:37:08;;;;;;;13.40;10.07;;;;;;;13.19;31.37;99158.06;6986420;28;20211;-83
2022/03/02 15:40:34;;;;;;;13.67;9.67;;;;;;;13.26;30.78;99158.88;6985186;28;20238;-83
2022/03/02 15:44:09;;;;;;;14.13;10.53;;;;;;;13.39;31.08;99146.13;6985556;28;20226;-84
2022/03/02 15:47:32;;;;;;;14.10;9.63;;;;;;;13.08;31.65;99140.59;6985779;28;20211;-83
2022/03/02 15:50:56;;;;;;;13.27;9.30;;;;;;;13.06;31.85;99155.41;6984755;28;20252;-83
2022/03/02 15:54:19;;;;;;;14.67;9.27;;;;;;;12.85;31.89;99158.31;6985499;28;20238;-83
2022/03/02 15:57:51;;;;;;;12.07;9.50;;;;;;;13.24;31.05;99145.56;6986234;28;20672;-84
2022/03/02 16:01:16;;;;;;;17.20;10.43;;;;;;;13.28;31.68;99156.78;6982428;28;20209;-83
2022/03/02 16:05:10;;;;;;;16.57;10.27;;;;;;;12.92;32.26;99148.31;6975159;28;20222;-83
2022/03/02 16:08:50;;;;;;;16.60;9.53;;;;;;;12.92;32.47;99151.84;6975284;28;20685;-83
2022/03/02 16:12:13;;;;;;;12.43;9.80;;;;;;;12.48;33.06;99124.66;6974214;28;20228;-83
2022/03/02 16:15:41;;;;;;;16.20;10.40;;;;;;;12.59;33.43;99161.06;6968086;28;20368;-83
2022/03/02 16:19:04;;;;;;;12.03;9.67;;;;;;;12.93;32.98;99158.91;6973782;28;20206;-84
2022/03/02 16:22:26;;;;;;;13.30;10.60;;;;;;;13.12;32.47;99155.38;6972022;28;20702;-83
2022/03/02 16:25:50;;;;;;;14.57;10.37;;;;;;;12.60;32.78;99144.63;6973447;28;20208;-83
2022/03/02 16:29:14;;;;;;;14.67;10.73;;;;;;;12.51;33.71;99170.22;6974259;28;20237;-83
2022/03/02 16:32:39;;;;;;;17.17;10.60;;;;;;;12.69;33.79;99158.78;6968390;28;20230;-83
2022/03/02 16:36:01;;;;;;;14.93;9.87;;;;;;;12.69;34.21;99147.94;6971866;28;20243;-83
2022/03/02 16:39:23;;;;;;;14.57;10.03;;;;;;;12.66;33.72;99115.88;6974306;28;20663;-83
2022/03/02 16:42:45;;;;;;;14.00;10.53;;;;;;;12.95;32.99;99156.88;6969003;28;20328;-83
2022/03/02 16:46:10;;;;;;;13.57;9.37;;;;;;;12.35;34.16;99151.72;6973064;28;20198;-83
2022/03/02 16:49:31;;;;;;;14.73;9.67;;;;;;;12.39;33.68;99136.72;6974467;28;20194;-83
2022/03/02 16:52:53;;;;;;;12.93;10.53;;;;;;;12.18;33.84;99136.09;6973597;28;20222;-83
2022/03/02 16:56:15;;;;;;;12.20;9.97;;;;;;;12.18;33.83;99155.03;6973436;28;20229;-83
2022/03/02 16:59:36;;;;;;;16.33;10.70;;;;;;;12.07;34.03;99159.19;6973251;28;20234;-83
2022/03/02 17:03:01;;;;;;;12.80;10.50;;;;;;;12.31;33.46;99155.03;6971950;28;20292;-83
2022/03/02 17:10:04;;;;;;;17.77;11.80;;;;;;;12.47;33.05;99135.69;6972117;28;20194;-82
2022/03/02 17:13:31;;;;;;;14.93;10.13;;;;;;;12.85;33.02;99145.63;6973187;28;20231;-82
2022/03/02 17:16:52;;;;;;;16.77;11.03;;;;;;;12.52;33.96;99150.22;6973383;28;20233;-82
2022/03/02 17:20:15;;;;;;;18.10;11.73;;;;;;;12.47;34.78;99155.47;6972379;28;20575;-85
2022/03/02 17:23:38;;;;;;;15.97;11.30;;;;;;;12.38;34.92;99159.41;6972850;28;20234;-85
2022/03/02 17:27:01;;;;;;;18.60;13.30;;;;;;;12.38;34.85;99166.66;6970325;28;20198;-82
2022/03/02 17:30:25;;;;;;;20.63;10.90;;;;;;;12.64;34.18;99150.44;6974032;28;20202;-82
2022/03/02 17:33:47;;;;;;;17.53;12.07;;;;;;;12.24;34.92;99149.63;6976390;28;20225;-85
2022/03/02 17:37:11;;;;;;;13.93;10.20;;;;;;;11.58;35.89;99133.47;6972695;28;20222;-84
2022/03/02 17:40:32;;;;;;;15.23;11.53;;;;;;;11.79;35.59;99146.84;6972514;28;20209;-85
2022/03/02 17:43:55;;;;;;;26.33;16.17;;;;;;;11.94;35.59;99148.34;6974465;28;20706;-86
2022/03/02 17:47:17;;;;;;;19.23;11.80;;;;;;;12.05;35.26;99160.41;6979232;28;20707;-83
2022/03/02 17:50:39;;;;;;;17.07;12.73;;;;;;;11.94;35.59;99145.66;6974785;28;20213;-82
2022/03/02 17:54:39;;;;;;;19.50;11.27;;;;;;;11.93;35.44;99145.84;6974166;28;20234;-82
2022/03/02 17:58:21;;;;;;;18.87;12.37;;;;;;;12.06;35.12;99135.06;6974666;28;20687;-82
2022/03/02 18:01:45;;;;;;;15.43;12.27;;;;;;;12.24;35.48;99157.75;6942742;28;20227;-82
2022/03/02 18:05:06;;;;;;;17.53;11.93;;;;;;;12.28;35.33;99152.75;6972352;28;20206;-83
2022/03/02 18:08:31;;;;;;;16.90;13.23;;;;;;;12.33;35.41;99144.84;6981388;28;20214;-83
2022/03/02 18:11:54;;;;;;;54.47;28.33;;;;;;;12.16;37.61;99130.09;6981678;28;20242;-85
2022/03/02 18:15:18;;;;;;;73.73;30.37;;;;;;;12.42;37.02;99146.28;6987744;28;20218;-84
2022/03/02 18:18:41;;;;;;;48.50;21.90;;;;;;;12.49;36.86;99152.53;6987143;28;20198;-84
2022/03/02 18:22:04;;;;;;;15.07;11.50;;;;;;;12.32;35.97;99152.13;6984823;28;20222;-83
2022/03/02 18:25:46;;;;;;;19.27;10.57;;;;;;;12.27;36.01;99151.09;6983319;28;20260;-86
2022/03/02 18:29:09;;;;;;;14.00;10.87;;;;;;;11.86;36.80;99148.53;6975999;28;20217;-86
2022/03/02 18:32:34;;;;;;;17.50;13.17;;;;;;;11.30;38.08;99089.56;6982001;28;20234;-85
2022/03/02 18:35:59;;;;;;;17.47;13.30;;;;;;;11.53;38.26;99122.44;6984954;28;20301;-86
2022/03/02 18:39:23;;;;;;;22.60;13.73;;;;;;;11.19;39.02;99142.25;6982509;28;20296;-85
2022/03/02 18:42:45;;;;;;;23.27;13.93;;;;;;;10.79;40.46;99139.53;6981653;28;20717;-81
2022/03/02 18:46:08;;;;;;;21.27;13.90;;;;;;;10.24;40.76;99080.28;6980327;28;20225;-85
2022/03/02 18:49:31;;;;;;;19.93;13.47;;;;;;;11.11;39.60;99123.53;6984427;28;20286;-87
2022/03/02 18:52:56;;;;;;;26.73;15.03;;;;;;;11.02;39.54;99097.75;6978788;28;20249;-85
2022/03/02 18:56:20;;;;;;;21.20;14.63;;;;;;;11.07;39.77;99105.25;6978070;28;20218;-84
2022/03/02 18:59:42;;;;;;;18.90;14.17;;;;;;;11.23;39.83;99143.50;6983783;28;20609;-83
2022/03/02 19:03:05;;;;;;;22.33;13.47;;;;;;;11.21;39.76;99140.19;6992159;28;20236;-84
2022/03/02 19:06:39;;;;;;;22.63;13.47;;;;;;;11.17;39.98;99119.22;6983350;28;20213;-84
2022/03/02 19:10:01;;;;;;;21.57;12.77;;;;;;;10.44;40.23;99048.88;6981945;28;20198;-84
2022/03/02 19:13:23;;;;;;;18.77;13.40;;;;;;;10.32;41.10;99080.13;6983010;28;20227;-85
2022/03/02 19:16:45;;;;;;;16.33;12.10;;;;;;;10.87;40.53;99150.19;6982507;28;20329;-84
2022/03/02 19:20:09;;;;;;;18.30;12.77;;;;;;;10.49;41.63;99146.19;6980245;28;20217;-84
2022/03/02 19:23:33;;;;;;;21.47;13.47;;;;;;;10.09;42.52;99138.81;6956855;28;20223;-84
2022/03/02 19:26:57;;;;;;;18.93;12.50;;;;;;;10.38;41.93;99104.44;6965101;28;20203;-84
2022/03/02 19:30:19;;;;;;;25.70;13.07;;;;;;;10.85;40.70;99111.75;6983684;28;20183;-85
2022/03/02 19:33:47;;;;;;;20.87;13.27;;;;;;;10.44;41.45;99087.47;6984079;28;20253;-85
2022/03/02 19:37:16;;;;;;;18.77;13.23;;;;;;;10.75;41.70;99135.59;6982910;28;20222;-85
2022/03/02 19:40:38;;;;;;;21.33;12.93;;;;;;;10.66;41.80;99158.34;6981351;28;20206;-85
2022/03/02 19:44:00;;;;;;;15.73;12.80;;;;;;;10.31;42.54;99146.69;6982503;28;20222;-85
2022/03/02 19:47:46;;;;;;;15.47;12.13;;;;;;;10.49;42.73;99146.19;6982523;28;20217;-84
2022/03/02 19:51:10;;;;;;;18.57;12.73;;;;;;;9.88;42.34;99069.63;6982189;28;20198;-85
2022/03/02 19:54:33;;;;;;;19.03;13.33;;;;;;;10.02;42.62;99117.16;6974179;28;20221;-85
2022/03/02 19:57:56;;;;;;;18.07;13.17;;;;;;;9.90;43.52;99147.50;6982326;28;20203;-85
2022/03/02 20:01:18;;;;;;;21.80;14.13;;;;;;;10.38;42.86;99136.78;6983648;28;20203;-86
2022/03/02 20:04:40;;;;;;;18.93;12.73;;;;;;;10.58;42.26;99134.22;6983536;28;20207;-86
2022/03/02 20:08:02;;;;;;;19.87;12.87;;;;;;;10.57;41.61;99136.06;6984088;28;20212;-85
2022/03/02 20:11:25;;;;;;;21.93;14.83;;;;;;;10.31;41.79;99117.03;6984649;28;20226;-85
2022/03/02 20:15:03;;;;;;;16.93;13.83;;;;;;;10.37;42.05;99135.13;6986587;28;20209;-84
2022/03/02 20:18:25;;;;;;;17.00;13.97;;;;;;;9.81;43.61;99141.41;6984645;28;20257;-89
2022/03/02 20:21:47;;;;;;;22.07;14.17;;;;;;;10.05;43.14;99145.63;6982430;28;20229;-87
2022/03/02 20:25:11;;;;;;;22.60;15.37;;;;;;;9.93;43.18;99112.94;6984414;28;20216;-85